createdAt,value
2017-12-31T02:04:13.786Z,87.63
2017-12-31T02:06:44.763Z,87.92
2017-12-31T02:09:15.403Z,88.00
2017-12-31T02:11:46.794Z,87.96
2017-12-31T02:14:15.693Z,88.35
2017-12-31T02:16:45.463Z,88.82
2017-12-31T02:19:17.907Z,88.73
2017-12-31T02:21:46.221Z,88.82
2017-12-31T02:24:19.071Z,88.82
2017-12-31T02:26:49.304Z,88.86
2017-12-31T02:29:19.616Z,88.89
2017-12-31T02:31:54.114Z,88.93
2017-12-31T02:34:30.866Z,89.14
2017-12-31T02:37:00.886Z,89.49
2017-12-31T02:39:31.587Z,89.58
2017-12-31T02:42:01.504Z,89.75
2017-12-31T02:44:32.165Z,89.73
2017-12-31T02:47:14.154Z,89.71
2017-12-31T02:49:45.168Z,89.70
2017-12-31T02:52:14.616Z,90.27
2017-12-31T02:54:45.393Z,90.52
2017-12-31T02:57:15.108Z,90.53
2017-12-31T02:59:47.944Z,90.60
2017-12-31T03:02:16.957Z,90.67
2017-12-31T03:04:46.395Z,90.77
2017-12-31T03:07:15.279Z,90.66
2017-12-31T03:09:48.482Z,90.57
2017-12-31T03:12:31.214Z,90.61
2017-12-31T03:15:04.233Z,91.01
2017-12-31T03:17:32.337Z,91.07
2017-12-31T03:20:02.275Z,91.26
2017-12-31T03:25:26.290Z,91.37
2017-12-31T03:27:57.867Z,91.47
2017-12-31T03:30:29.261Z,91.60
2017-12-31T03:33:00.576Z,91.43
2017-12-31T03:35:31.855Z,91.35
2017-12-31T03:38:05.624Z,91.35
2017-12-31T03:40:37.505Z,91.64
2017-12-31T03:43:05.503Z,91.63
2017-12-31T03:45:38.899Z,91.37
2017-12-31T03:48:09.228Z,91.48
2017-12-31T03:50:43.630Z,91.38
2017-12-31T03:53:14.338Z,91.22
2017-12-31T03:55:48.250Z,91.15
2017-12-31T03:58:18.826Z,91.34
2017-12-31T04:00:52.934Z,91.32
2017-12-31T04:03:26.877Z,91.44
2017-12-31T04:05:57.426Z,91.45
2017-12-31T04:08:30.491Z,91.41
2017-12-31T04:11:00.960Z,91.44
2017-12-31T04:13:31.960Z,91.46
2017-12-31T04:16:02.697Z,91.41
2017-12-31T04:21:27.725Z,91.07
2017-12-31T04:24:04.580Z,91.15
2017-12-31T04:26:39.307Z,91.44
2017-12-31T04:29:10.575Z,91.55
2017-12-31T04:31:42.930Z,91.55
2017-12-31T04:34:19.315Z,91.74
2017-12-31T04:36:51.064Z,92.14
2017-12-31T04:39:23.751Z,92.33
2017-12-31T09:33:57.112Z,95.24
2017-12-31T09:39:04.254Z,95.33
2017-12-31T09:41:35.471Z,94.90
2017-12-31T09:44:10.480Z,94.66
2017-12-31T09:46:42.720Z,94.23
2017-12-31T09:51:52.061Z,94.19
2017-12-31T09:57:23.230Z,93.84
2017-12-31T10:00:06.239Z,93.89
2017-12-31T10:02:40.296Z,93.37
2017-12-31T10:05:13.495Z,93.45
2017-12-31T10:07:45.423Z,93.02
2017-12-31T10:20:30.678Z,92.50
2017-12-31T10:23:06.961Z,92.43
2017-12-31T10:25:42.878Z,92.22
2017-12-31T10:28:17.149Z,92.95
2017-12-31T10:30:50.836Z,92.52
2017-12-31T10:33:21.733Z,92.00
2017-12-31T10:35:56.718Z,92.34
2017-12-31T10:38:28.688Z,92.45
2017-12-31T10:41:01.296Z,92.30
2017-12-31T10:43:29.775Z,92.49
2017-12-31T10:46:22.793Z,92.73
2017-12-31T10:48:53.616Z,92.73
2017-12-31T10:51:24.399Z,92.79
2017-12-31T10:53:52.262Z,92.90
2017-12-31T10:56:21.287Z,92.78
2017-12-31T10:58:50.936Z,92.57
2017-12-31T11:01:18.668Z,92.55
2017-12-31T11:03:52.782Z,92.46
2017-12-31T11:06:38.926Z,92.35
2017-12-31T13:04:52.471Z,91.57
2017-12-31T13:07:37.864Z,91.61
2017-12-31T13:10:09.424Z,91.86
2017-12-31T13:12:38.189Z,91.91
2017-12-31T13:18:10.363Z,91.37
2017-12-31T13:26:05.653Z,91.75
2017-12-31T13:28:36.213Z,91.53
2017-12-31T13:31:04.065Z,91.65
2017-12-31T13:33:40.715Z,91.95
2017-12-31T13:36:12.725Z,92.27
2017-12-31T13:41:17.428Z,92.02
2017-12-31T13:43:46.932Z,92.44
2017-12-31T13:46:14.868Z,92.30
2017-12-31T13:48:43.837Z,92.41
2017-12-31T13:51:11.532Z,92.39
2017-12-31T13:53:39.808Z,92.04
2017-12-31T13:56:07.684Z,91.87
2017-12-31T13:58:37.683Z,92.08
2017-12-31T14:01:09.335Z,92.26
2017-12-31T14:03:37.893Z,92.66
2017-12-31T14:06:05.684Z,92.96
2017-12-31T14:08:35.351Z,93.69
2017-12-31T14:11:04.320Z,94.00
2017-12-31T14:13:32.136Z,94.42
2017-12-31T14:15:59.902Z,94.58
2017-12-31T14:18:29.146Z,94.62
2017-12-31T14:21:00.032Z,94.72
2017-12-31T14:23:29.214Z,94.75
2017-12-31T14:26:00.897Z,94.59
2017-12-31T14:28:28.643Z,94.63
2017-12-31T14:30:56.816Z,94.72
2017-12-31T14:33:25.254Z,94.88
2017-12-31T14:35:53.161Z,94.98
2017-12-31T14:38:23.113Z,95.10
2017-12-31T14:40:52.649Z,95.12
2017-12-31T14:43:22.039Z,95.20
2017-12-31T14:45:49.868Z,95.37
2017-12-31T14:48:19.076Z,95.34
2017-12-31T14:50:47.634Z,95.44
2017-12-31T14:53:15.600Z,95.32
2017-12-31T14:55:43.492Z,95.26
2017-12-31T14:58:12.086Z,94.97
2017-12-31T15:00:40.602Z,94.61
2017-12-31T15:03:08.483Z,94.39
2017-12-31T15:05:42.116Z,93.95
2017-12-31T15:08:09.941Z,93.87
2017-12-31T15:10:40.620Z,93.38
2017-12-31T15:13:09.434Z,93.29
2017-12-31T15:15:38.725Z,93.32
2017-12-31T15:18:07.574Z,93.27
2017-12-31T15:20:36.790Z,93.21
2017-12-31T15:23:04.505Z,93.10
2017-12-31T15:25:38.795Z,92.98
2017-12-31T15:28:07.464Z,93.10
2017-12-31T15:30:41.346Z,92.64
2017-12-31T15:33:09.084Z,92.12
2017-12-31T15:35:37.033Z,92.00
2017-12-31T15:38:05.035Z,91.74
2017-12-31T15:40:34.038Z,92.15
2017-12-31T15:43:03.058Z,91.88
2017-12-31T15:45:32.807Z,91.64
2017-12-31T15:48:09.805Z,91.35
2017-12-31T15:50:38.816Z,91.27
2017-12-31T15:53:06.658Z,91.48
2017-12-31T15:55:35.367Z,91.36
2017-12-31T15:58:03.719Z,91.54
2017-12-31T16:00:33.212Z,91.78
2017-12-31T16:03:06.067Z,91.26
2017-12-31T16:09:24.361Z,91.30
2017-12-31T16:11:53.368Z,91.22
2017-12-31T16:14:30.288Z,91.15
2017-12-31T16:16:59.859Z,90.93
2017-12-31T16:19:32.404Z,90.72
2017-12-31T16:22:02.307Z,90.60
2017-12-31T16:24:32.606Z,90.37
2017-12-31T16:27:05.308Z,90.39
2017-12-31T16:29:44.654Z,90.37
2017-12-31T16:38:18.259Z,91.37
2017-12-31T16:41:01.613Z,91.73
2017-12-31T16:43:39.907Z,92.47
2017-12-31T16:48:49.110Z,92.77
2017-12-31T16:51:29.086Z,92.73
2017-12-31T16:56:44.639Z,92.81
2017-12-31T17:05:13.205Z,92.81
2017-12-31T17:07:49.423Z,92.69
2017-12-31T17:10:22.178Z,92.74
2017-12-31T17:12:50.321Z,92.63
2017-12-31T17:15:19.874Z,92.81
2017-12-31T17:17:54.044Z,91.55
2017-12-31T17:23:13.312Z,88.20
2017-12-31T17:25:44.668Z,87.36
2017-12-31T17:28:15.401Z,87.70
2017-12-31T17:30:43.182Z,87.86
2017-12-31T17:33:11.753Z,88.09
2017-12-31T17:35:41.855Z,88.47
2017-12-31T17:38:09.639Z,88.71
2017-12-31T17:40:46.549Z,89.12
2017-12-31T17:43:14.290Z,89.34
2017-12-31T17:45:42.740Z,89.74
2017-12-31T17:48:13.019Z,89.80
2017-12-31T17:50:44.711Z,90.23
2017-12-31T17:53:14.133Z,90.57
2017-12-31T17:55:50.901Z,90.67
2017-12-31T17:58:32.865Z,91.17
2017-12-31T18:01:09.438Z,91.28
2017-12-31T18:03:52.612Z,91.35
2017-12-31T18:06:23.882Z,91.47
2017-12-31T18:08:54.612Z,91.59
2017-12-31T18:11:22.367Z,91.67
2017-12-31T18:13:50.124Z,92.54
2017-12-31T18:16:21.572Z,92.59
2017-12-31T18:18:54.331Z,92.47
2017-12-31T18:21:25.763Z,92.09
2017-12-31T18:23:59.852Z,91.63
2017-12-31T18:26:29.363Z,91.58
2017-12-31T18:28:59.724Z,91.70
2017-12-31T18:31:29.066Z,91.86
2017-12-31T18:34:04.754Z,92.10
2017-12-31T18:36:34.911Z,92.57
2017-12-31T18:39:04.287Z,92.74
2017-12-31T18:41:33.379Z,92.90
2017-12-31T19:17:36.727Z,91.69
2017-12-31T20:30:32.014Z,92.73
2017-12-31T20:33:02.246Z,92.80
2017-12-31T20:35:30.857Z,92.89
2017-12-31T20:52:15.714Z,93.53
2017-12-31T21:00:55.598Z,93.47
2017-12-31T21:03:42.943Z,93.57
2017-12-31T21:06:35.158Z,93.60
2017-12-31T21:10:52.143Z,93.83
2017-12-31T21:38:28.551Z,95.62
2017-12-31T21:41:03.448Z,95.69
2017-12-31T21:43:33.829Z,95.82
2017-12-31T21:46:05.491Z,95.73
2017-12-31T21:48:36.692Z,95.66
2017-12-31T21:51:05.596Z,95.61
2017-12-31T21:56:31.681Z,95.71
2017-12-31T22:04:37.604Z,95.20
2017-12-31T22:07:14.332Z,94.73
2017-12-31T22:09:42.148Z,94.09
2017-12-31T22:12:09.968Z,93.77
2017-12-31T22:14:39.594Z,93.40
2017-12-31T22:26:29.532Z,91.08
2017-12-31T22:31:49.922Z,90.82
2017-12-31T22:34:30.106Z,90.98
2017-12-31T22:37:05.679Z,91.04
2017-12-31T22:39:44.084Z,91.52
2017-12-31T22:42:12.099Z,90.57
2017-12-31T22:44:42.974Z,90.44
2017-12-31T22:47:11.933Z,90.33
2017-12-31T22:49:44.863Z,90.85
2017-12-31T22:52:18.235Z,90.67
2017-12-31T22:57:19.514Z,90.67
2017-12-31T22:59:51.715Z,90.78
2017-12-31T23:02:19.697Z,90.80
2017-12-31T23:04:56.714Z,90.67
2017-12-31T23:07:29.553Z,90.87
2017-12-31T23:10:05.286Z,90.87
2017-12-31T23:12:35.917Z,90.58
2017-12-31T23:21:11.536Z,90.80
2017-12-31T23:23:44.486Z,90.85
2017-12-31T23:26:13.313Z,91.12
2017-12-31T23:28:41.112Z,91.13
2017-12-31T23:31:08.804Z,91.48
2017-12-31T23:33:37.197Z,91.85
2017-12-31T23:36:08.687Z,91.81
2017-12-31T23:38:40.430Z,91.94
2017-12-31T23:41:10.018Z,92.02
2017-12-31T23:43:42.079Z,92.27
2017-12-31T23:46:11.067Z,92.10
2017-12-31T23:48:47.686Z,92.08
2017-12-31T23:53:51.393Z,91.95
